sensor_id;sensor_type;location;lat;lon;timestamp;P1;durP1;ratioP1;P2;durP2;ratioP2
6412;SDS011;3239;48.714;9.472;2023-11-18T00:00:26;5.80;;;4.50;;
6412;SDS011;3239;48.714;9.472;2023-11-18T00:02:52;5.27;;;4.77;;
6412;SDS011;3239;48.714;9.472;2023-11-18T00:05:18;7.60;;;5.43;;
6412;SDS011;3239;48.714;9.472;2023-11-18T00:07:43;5.20;;;4.70;;
6412;SDS011;3239;48.714;9.472;2023-11-18T00:10:09;5.43;;;4.40;;
6412;SDS011;3239;48.714;9.472;2023-11-18T00:12:36;5.47;;;4.97;;
6412;SDS011;3239;48.714;9.472;2023-11-18T00:15:02;6.37;;;5.53;;
6412;SDS011;3239;48.714;9.472;2023-11-18T00:17:30;7.73;;;4.57;;
6412;SDS011;3239;48.714;9.472;2023-11-18T00:19:57;7.10;;;4.80;;
6412;SDS011;3239;48.714;9.472;2023-11-18T00:22:22;6.50;;;5.23;;
6412;SDS011;3239;48.714;9.472;2023-11-18T00:24:48;5.40;;;4.90;;
6412;SDS011;3239;48.714;9.472;2023-11-18T00:27:14;5.60;;;4.70;;
6412;SDS011;3239;48.714;9.472;2023-11-18T00:29:40;6.07;;;5.47;;
6412;SDS011;3239;48.714;9.472;2023-11-18T00:32:08;8.70;;;5.40;;
6412;SDS011;3239;48.714;9.472;2023-11-18T00:34:34;6.53;;;4.83;;
6412;SDS011;3239;48.714;9.472;2023-11-18T00:37:00;6.13;;;4.97;;
6412;SDS011;3239;48.714;9.472;2023-11-18T00:39:26;5.90;;;5.30;;
6412;SDS011;3239;48.714;9.472;2023-11-18T00:41:52;5.27;;;4.77;;
6412;SDS011;3239;48.714;9.472;2023-11-18T00:44:18;5.30;;;4.80;;
6412;SDS011;3239;48.714;9.472;2023-11-18T00:46:44;5.80;;;5.20;;
6412;SDS011;3239;48.714;9.472;2023-11-18T00:49:10;6.67;;;5.97;;
6412;SDS011;3239;48.714;9.472;2023-11-18T00:51:38;6.90;;;5.70;;
6412;SDS011;3239;48.714;9.472;2023-11-18T00:54:06;4.30;;;3.90;;
6412;SDS011;3239;48.714;9.472;2023-11-18T00:56:32;5.60;;;5.00;;
6412;SDS011;3239;48.714;9.472;2023-11-18T00:58:58;10.23;;;5.90;;
6412;SDS011;3239;48.714;9.472;2023-11-18T01:01:26;6.17;;;5.53;;
6412;SDS011;3239;48.714;9.472;2023-11-18T01:03:53;5.23;;;4.73;;
6412;SDS011;3239;48.714;9.472;2023-11-18T01:06:19;6.20;;;5.43;;
6412;SDS011;3239;48.714;9.472;2023-11-18T01:08:45;6.13;;;5.60;;
6412;SDS011;3239;48.714;9.472;2023-11-18T01:11:15;6.60;;;5.73;;
6412;SDS011;3239;48.714;9.472;2023-11-18T01:13:45;6.00;;;5.50;;
6412;SDS011;3239;48.714;9.472;2023-11-18T01:16:12;6.27;;;5.67;;
6412;SDS011;3239;48.714;9.472;2023-11-18T01:18:39;6.43;;;5.60;;
6412;SDS011;3239;48.714;9.472;2023-11-18T01:21:06;6.03;;;5.43;;
6412;SDS011;3239;48.714;9.472;2023-11-18T01:23:34;6.23;;;5.63;;
6412;SDS011;3239;48.714;9.472;2023-11-18T01:26:04;7.10;;;5.73;;
6412;SDS011;3239;48.714;9.472;2023-11-18T01:28:31;6.20;;;5.67;;
6412;SDS011;3239;48.714;9.472;2023-11-18T01:31:03;6.20;;;5.60;;
6412;SDS011;3239;48.714;9.472;2023-11-18T01:33:29;6.20;;;5.60;;
6412;SDS011;3239;48.714;9.472;2023-11-18T01:35:57;7.10;;;5.60;;
6412;SDS011;3239;48.714;9.472;2023-11-18T01:38:24;4.83;;;4.43;;
6412;SDS011;3239;48.714;9.472;2023-11-18T01:40:51;7.83;;;5.70;;
6412;SDS011;3239;48.714;9.472;2023-11-18T01:43:18;9.43;;;6.83;;
6412;SDS011;3239;48.714;9.472;2023-11-18T01:45:44;6.40;;;5.50;;
6412;SDS011;3239;48.714;9.472;2023-11-18T01:48:11;6.13;;;5.53;;
6412;SDS011;3239;48.714;9.472;2023-11-18T01:50:38;5.83;;;4.73;;
6412;SDS011;3239;48.714;9.472;2023-11-18T01:53:06;5.97;;;5.43;;
6412;SDS011;3239;48.714;9.472;2023-11-18T01:55:34;6.33;;;5.17;;
6412;SDS011;3239;48.714;9.472;2023-11-18T01:58:01;6.03;;;5.47;;
6412;SDS011;3239;48.714;9.472;2023-11-18T02:00:33;6.33;;;5.73;;
6412;SDS011;3239;48.714;9.472;2023-11-18T02:03:03;5.10;;;4.60;;
6412;SDS011;3239;48.714;9.472;2023-11-18T02:05:30;6.50;;;5.37;;
6412;SDS011;3239;48.714;9.472;2023-11-18T02:08:00;5.30;;;4.90;;
6412;SDS011;3239;48.714;9.472;2023-11-18T02:10:29;5.97;;;5.37;;
6412;SDS011;3239;48.714;9.472;2023-11-18T02:13:04;8.73;;;5.80;;
6412;SDS011;3239;48.714;9.472;2023-11-18T02:15:40;5.70;;;5.00;;
6412;SDS011;3239;48.714;9.472;2023-11-18T02:18:06;8.60;;;4.40;;
6412;SDS011;3239;48.714;9.472;2023-11-18T02:20:34;5.00;;;4.40;;
6412;SDS011;3239;48.714;9.472;2023-11-18T02:23:02;5.33;;;4.73;;
6412;SDS011;3239;48.714;9.472;2023-11-18T02:25:29;5.53;;;4.87;;
6412;SDS011;3239;48.714;9.472;2023-11-18T02:27:59;5.23;;;4.73;;
6412;SDS011;3239;48.714;9.472;2023-11-18T02:30:25;6.00;;;5.03;;
6412;SDS011;3239;48.714;9.472;2023-11-18T02:32:58;5.43;;;4.77;;
6412;SDS011;3239;48.714;9.472;2023-11-18T02:35:33;4.93;;;4.53;;
6412;SDS011;3239;48.714;9.472;2023-11-18T02:38:08;5.20;;;4.70;;
6412;SDS011;3239;48.714;9.472;2023-11-18T02:40:39;5.40;;;4.77;;
6412;SDS011;3239;48.714;9.472;2023-11-18T02:43:08;5.43;;;4.93;;
6412;SDS011;3239;48.714;9.472;2023-11-18T02:45:35;5.67;;;4.57;;
6412;SDS011;3239;48.714;9.472;2023-11-18T02:48:05;6.07;;;5.30;;
6412;SDS011;3239;48.714;9.472;2023-11-18T02:50:31;6.33;;;5.03;;
6412;SDS011;3239;48.714;9.472;2023-11-18T02:52:57;5.07;;;4.60;;
6412;SDS011;3239;48.714;9.472;2023-11-18T02:55:23;5.97;;;5.03;;
6412;SDS011;3239;48.714;9.472;2023-11-18T02:57:49;6.40;;;5.80;;
6412;SDS011;3239;48.714;9.472;2023-11-18T03:00:16;7.20;;;5.97;;
6412;SDS011;3239;48.714;9.472;2023-11-18T03:02:53;8.60;;;6.30;;
6412;SDS011;3239;48.714;9.472;2023-11-18T03:05:19;9.13;;;6.27;;
6412;SDS011;3239;48.714;9.472;2023-11-18T03:07:49;7.90;;;5.90;;
6412;SDS011;3239;48.714;9.472;2023-11-18T03:10:18;6.03;;;5.53;;
6412;SDS011;3239;48.714;9.472;2023-11-18T03:12:47;6.03;;;5.43;;
6412;SDS011;3239;48.714;9.472;2023-11-18T03:15:14;5.60;;;5.10;;
6412;SDS011;3239;48.714;9.472;2023-11-18T03:17:43;6.50;;;5.30;;
6412;SDS011;3239;48.714;9.472;2023-11-18T03:20:10;6.50;;;5.80;;
6412;SDS011;3239;48.714;9.472;2023-11-18T03:22:39;6.80;;;5.93;;
6412;SDS011;3239;48.714;9.472;2023-11-18T03:25:05;6.07;;;5.43;;
6412;SDS011;3239;48.714;9.472;2023-11-18T03:27:32;7.27;;;6.43;;
6412;SDS011;3239;48.714;9.472;2023-11-18T03:29:58;8.13;;;6.40;;
6412;SDS011;3239;48.714;9.472;2023-11-18T03:32:24;6.00;;;5.40;;
6412;SDS011;3239;48.714;9.472;2023-11-18T03:34:50;6.63;;;5.97;;
6412;SDS011;3239;48.714;9.472;2023-11-18T03:37:16;8.63;;;6.77;;
6412;SDS011;3239;48.714;9.472;2023-11-18T03:39:41;8.60;;;6.40;;
6412;SDS011;3239;48.714;9.472;2023-11-18T03:42:07;8.90;;;7.13;;
6412;SDS011;3239;48.714;9.472;2023-11-18T03:44:33;6.97;;;6.33;;
6412;SDS011;3239;48.714;9.472;2023-11-18T03:46:59;8.07;;;6.80;;
6412;SDS011;3239;48.714;9.472;2023-11-18T03:49:24;6.47;;;5.80;;
6412;SDS011;3239;48.714;9.472;2023-11-18T03:51:50;6.60;;;6.00;;
6412;SDS011;3239;48.714;9.472;2023-11-18T03:54:16;6.10;;;5.37;;
6412;SDS011;3239;48.714;9.472;2023-11-18T03:56:41;5.97;;;5.30;;
6412;SDS011;3239;48.714;9.472;2023-11-18T03:59:07;8.27;;;6.00;;
6412;SDS011;3239;48.714;9.472;2023-11-18T04:01:34;5.47;;;4.80;;
6412;SDS011;3239;48.714;9.472;2023-11-18T04:04:00;7.47;;;5.60;;
6412;SDS011;3239;48.714;9.472;2023-11-18T04:06:25;9.13;;;6.00;;
6412;SDS011;3239;48.714;9.472;2023-11-18T04:08:51;7.07;;;5.40;;
6412;SDS011;3239;48.714;9.472;2023-11-18T04:11:17;6.30;;;5.70;;
6412;SDS011;3239;48.714;9.472;2023-11-18T04:13:43;6.17;;;5.57;;
6412;SDS011;3239;48.714;9.472;2023-11-18T04:16:16;5.70;;;5.20;;
6412;SDS011;3239;48.714;9.472;2023-11-18T04:18:42;6.43;;;5.83;;
6412;SDS011;3239;48.714;9.472;2023-11-18T04:21:09;9.67;;;6.60;;
6412;SDS011;3239;48.714;9.472;2023-11-18T04:23:40;6.67;;;5.70;;
6412;SDS011;3239;48.714;9.472;2023-11-18T04:26:07;5.30;;;4.80;;
6412;SDS011;3239;48.714;9.472;2023-11-18T04:28:34;7.00;;;5.70;;
6412;SDS011;3239;48.714;9.472;2023-11-18T04:31:00;5.30;;;4.80;;
6412;SDS011;3239;48.714;9.472;2023-11-18T04:33:27;6.20;;;5.60;;
6412;SDS011;3239;48.714;9.472;2023-11-18T04:35:55;7.20;;;5.87;;
6412;SDS011;3239;48.714;9.472;2023-11-18T04:38:24;5.60;;;5.10;;
6412;SDS011;3239;48.714;9.472;2023-11-18T04:40:51;6.90;;;5.57;;
6412;SDS011;3239;48.714;9.472;2023-11-18T04:43:19;5.77;;;5.27;;
6412;SDS011;3239;48.714;9.472;2023-11-18T04:45:45;5.77;;;5.27;;
6412;SDS011;3239;48.714;9.472;2023-11-18T04:48:11;6.17;;;5.60;;
6412;SDS011;3239;48.714;9.472;2023-11-18T04:50:39;6.50;;;5.80;;
6412;SDS011;3239;48.714;9.472;2023-11-18T04:53:07;9.83;;;5.20;;
6412;SDS011;3239;48.714;9.472;2023-11-18T04:55:33;6.53;;;5.87;;
6412;SDS011;3239;48.714;9.472;2023-11-18T04:58:00;6.60;;;5.30;;
6412;SDS011;3239;48.714;9.472;2023-11-18T05:00:26;6.20;;;5.67;;
6412;SDS011;3239;48.714;9.472;2023-11-18T05:02:52;6.33;;;5.83;;
6412;SDS011;3239;48.714;9.472;2023-11-18T05:05:19;6.37;;;5.77;;
6412;SDS011;3239;48.714;9.472;2023-11-18T05:07:46;5.70;;;5.20;;
6412;SDS011;3239;48.714;9.472;2023-11-18T05:10:12;6.23;;;5.50;;
6412;SDS011;3239;48.714;9.472;2023-11-18T05:12:38;6.53;;;5.83;;
6412;SDS011;3239;48.714;9.472;2023-11-18T05:15:05;7.57;;;4.90;;
6412;SDS011;3239;48.714;9.472;2023-11-18T05:17:41;8.83;;;6.40;;
6412;SDS011;3239;48.714;9.472;2023-11-18T05:20:07;6.57;;;5.97;;
6412;SDS011;3239;48.714;9.472;2023-11-18T05:22:34;6.63;;;5.37;;
6412;SDS011;3239;48.714;9.472;2023-11-18T05:25:01;10.30;;;6.30;;
6412;SDS011;3239;48.714;9.472;2023-11-18T05:27:32;6.03;;;5.10;;
6412;SDS011;3239;48.714;9.472;2023-11-18T05:29:58;6.00;;;4.83;;
6412;SDS011;3239;48.714;9.472;2023-11-18T05:32:26;7.27;;;5.63;;
6412;SDS011;3239;48.714;9.472;2023-11-18T05:34:53;6.40;;;5.80;;
6412;SDS011;3239;48.714;9.472;2023-11-18T05:37:23;6.57;;;5.90;;
6412;SDS011;3239;48.714;9.472;2023-11-18T05:39:50;5.73;;;5.13;;
6412;SDS011;3239;48.714;9.472;2023-11-18T05:42:24;6.57;;;5.97;;
6412;SDS011;3239;48.714;9.472;2023-11-18T05:44:51;5.57;;;5.03;;
6412;SDS011;3239;48.714;9.472;2023-11-18T05:47:24;8.73;;;6.03;;
6412;SDS011;3239;48.714;9.472;2023-11-18T05:49:51;6.27;;;5.70;;
6412;SDS011;3239;48.714;9.472;2023-11-18T05:52:18;6.93;;;6.23;;
6412;SDS011;3239;48.714;9.472;2023-11-18T05:54:45;6.50;;;5.67;;
6412;SDS011;3239;48.714;9.472;2023-11-18T05:57:15;5.80;;;5.20;;
6412;SDS011;3239;48.714;9.472;2023-11-18T05:59:43;6.17;;;5.50;;
6412;SDS011;3239;48.714;9.472;2023-11-18T06:02:09;6.47;;;5.87;;
6412;SDS011;3239;48.714;9.472;2023-11-18T06:04:46;7.17;;;5.90;;
6412;SDS011;3239;48.714;9.472;2023-11-18T06:07:12;7.33;;;6.50;;
6412;SDS011;3239;48.714;9.472;2023-11-18T06:09:40;7.17;;;5.70;;
6412;SDS011;3239;48.714;9.472;2023-11-18T06:12:09;5.63;;;5.00;;
6412;SDS011;3239;48.714;9.472;2023-11-18T06:14:36;5.90;;;5.30;;
6412;SDS011;3239;48.714;9.472;2023-11-18T06:17:03;5.90;;;5.40;;
6412;SDS011;3239;48.714;9.472;2023-11-18T06:19:29;7.87;;;6.20;;
6412;SDS011;3239;48.714;9.472;2023-11-18T06:21:54;6.60;;;5.27;;
6412;SDS011;3239;48.714;9.472;2023-11-18T06:24:20;6.87;;;5.50;;
6412;SDS011;3239;48.714;9.472;2023-11-18T06:26:46;7.33;;;6.60;;
6412;SDS011;3239;48.714;9.472;2023-11-18T06:29:14;10.03;;;7.60;;
6412;SDS011;3239;48.714;9.472;2023-11-18T06:31:40;7.13;;;6.40;;
6412;SDS011;3239;48.714;9.472;2023-11-18T06:34:07;6.53;;;5.53;;
6412;SDS011;3239;48.714;9.472;2023-11-18T06:36:33;6.80;;;6.00;;
6412;SDS011;3239;48.714;9.472;2023-11-18T06:38:59;7.73;;;6.30;;
6412;SDS011;3239;48.714;9.472;2023-11-18T06:41:25;7.13;;;6.43;;
6412;SDS011;3239;48.714;9.472;2023-11-18T06:43:58;6.43;;;5.83;;
6412;SDS011;3239;48.714;9.472;2023-11-18T06:46:28;9.53;;;6.13;;
6412;SDS011;3239;48.714;9.472;2023-11-18T06:48:59;7.60;;;5.90;;
6412;SDS011;3239;48.714;9.472;2023-11-18T06:51:28;7.23;;;6.10;;
6412;SDS011;3239;48.714;9.472;2023-11-18T06:53:56;8.20;;;5.40;;
6412;SDS011;3239;48.714;9.472;2023-11-18T06:56:23;8.50;;;5.90;;
6412;SDS011;3239;48.714;9.472;2023-11-18T06:58:52;6.90;;;5.87;;
6412;SDS011;3239;48.714;9.472;2023-11-18T07:01:19;7.20;;;6.50;;
6412;SDS011;3239;48.714;9.472;2023-11-18T07:03:45;9.37;;;6.67;;
6412;SDS011;3239;48.714;9.472;2023-11-18T07:06:18;8.03;;;7.23;;
6412;SDS011;3239;48.714;9.472;2023-11-18T07:08:48;8.17;;;5.80;;
6412;SDS011;3239;48.714;9.472;2023-11-18T07:11:15;11.93;;;8.13;;
6412;SDS011;3239;48.714;9.472;2023-11-18T07:13:42;11.47;;;8.90;;
6412;SDS011;3239;48.714;9.472;2023-11-18T07:16:09;9.47;;;7.83;;
6412;SDS011;3239;48.714;9.472;2023-11-18T07:18:35;12.77;;;8.03;;
6412;SDS011;3239;48.714;9.472;2023-11-18T07:21:02;11.67;;;7.40;;
6412;SDS011;3239;48.714;9.472;2023-11-18T07:23:32;8.20;;;6.77;;
6412;SDS011;3239;48.714;9.472;2023-11-18T07:25:58;10.57;;;6.90;;
6412;SDS011;3239;48.714;9.472;2023-11-18T07:28:25;12.60;;;10.20;;
6412;SDS011;3239;48.714;9.472;2023-11-18T07:30:52;9.90;;;8.37;;
6412;SDS011;3239;48.714;9.472;2023-11-18T07:33:18;11.90;;;9.30;;
6412;SDS011;3239;48.714;9.472;2023-11-18T07:35:45;10.30;;;8.47;;
6412;SDS011;3239;48.714;9.472;2023-11-18T07:38:13;9.70;;;8.43;;
6412;SDS011;3239;48.714;9.472;2023-11-18T07:40:40;7.80;;;7.10;;
6412;SDS011;3239;48.714;9.472;2023-11-18T07:43:08;8.80;;;7.27;;
6412;SDS011;3239;48.714;9.472;2023-11-18T07:45:34;6.60;;;5.90;;
6412;SDS011;3239;48.714;9.472;2023-11-18T07:48:12;6.30;;;5.67;;
6412;SDS011;3239;48.714;9.472;2023-11-18T07:50:39;4.93;;;4.53;;
6412;SDS011;3239;48.714;9.472;2023-11-18T07:53:06;4.87;;;4.47;;
6412;SDS011;3239;48.714;9.472;2023-11-18T07:55:32;5.27;;;4.77;;
6412;SDS011;3239;48.714;9.472;2023-11-18T07:58:00;4.10;;;3.70;;
6412;SDS011;3239;48.714;9.472;2023-11-18T08:00:27;3.57;;;3.27;;
6412;SDS011;3239;48.714;9.472;2023-11-18T08:02:56;3.23;;;2.80;;
6412;SDS011;3239;48.714;9.472;2023-11-18T08:05:24;3.80;;;3.20;;
6412;SDS011;3239;48.714;9.472;2023-11-18T08:07:51;3.37;;;3.07;;
6412;SDS011;3239;48.714;9.472;2023-11-18T08:10:18;4.00;;;3.50;;
6412;SDS011;3239;48.714;9.472;2023-11-18T08:12:46;3.93;;;2.83;;
6412;SDS011;3239;48.714;9.472;2023-11-18T08:15:13;4.27;;;3.50;;
6412;SDS011;3239;48.714;9.472;2023-11-18T08:17:38;3.43;;;3.13;;
6412;SDS011;3239;48.714;9.472;2023-11-18T08:20:05;3.10;;;2.33;;
6412;SDS011;3239;48.714;9.472;2023-11-18T08:22:41;2.83;;;2.63;;
6412;SDS011;3239;48.714;9.472;2023-11-18T08:25:11;2.63;;;2.43;;
6412;SDS011;3239;48.714;9.472;2023-11-18T08:27:38;7.30;;;3.40;;
6412;SDS011;3239;48.714;9.472;2023-11-18T08:30:05;3.97;;;3.50;;
6412;SDS011;3239;48.714;9.472;2023-11-18T08:32:37;3.37;;;3.07;;
6412;SDS011;3239;48.714;9.472;2023-11-18T08:35:04;3.07;;;2.73;;
6412;SDS011;3239;48.714;9.472;2023-11-18T08:37:35;3.60;;;2.70;;
6412;SDS011;3239;48.714;9.472;2023-11-18T08:40:05;3.53;;;2.30;;
6412;SDS011;3239;48.714;9.472;2023-11-18T08:45:24;5.23;;;4.70;;
6412;SDS011;3239;48.714;9.472;2023-11-18T08:47:54;5.30;;;4.90;;
6412;SDS011;3239;48.714;9.472;2023-11-18T08:50:25;3.77;;;3.43;;
6412;SDS011;3239;48.714;9.472;2023-11-18T08:52:53;3.87;;;3.57;;
6412;SDS011;3239;48.714;9.472;2023-11-18T08:55:23;4.47;;;4.07;;
6412;SDS011;3239;48.714;9.472;2023-11-18T08:57:58;4.23;;;3.83;;
6412;SDS011;3239;48.714;9.472;2023-11-18T09:00:28;4.03;;;3.30;;
6412;SDS011;3239;48.714;9.472;2023-11-18T09:03:11;4.30;;;3.90;;
6412;SDS011;3239;48.714;9.472;2023-11-18T09:05:49;4.03;;;3.63;;
6412;SDS011;3239;48.714;9.472;2023-11-18T09:10:57;4.17;;;3.77;;
6412;SDS011;3239;48.714;9.472;2023-11-18T09:13:24;6.00;;;4.30;;
6412;SDS011;3239;48.714;9.472;2023-11-18T09:15:58;3.73;;;3.43;;
6412;SDS011;3239;48.714;9.472;2023-11-18T09:18:37;4.50;;;4.10;;
6412;SDS011;3239;48.714;9.472;2023-11-18T09:21:05;4.47;;;3.90;;
6412;SDS011;3239;48.714;9.472;2023-11-18T09:23:32;3.53;;;3.20;;
6412;SDS011;3239;48.714;9.472;2023-11-18T09:25:59;4.33;;;3.30;;
6412;SDS011;3239;48.714;9.472;2023-11-18T09:28:26;5.10;;;3.10;;
6412;SDS011;3239;48.714;9.472;2023-11-18T09:30:54;2.87;;;2.67;;
6412;SDS011;3239;48.714;9.472;2023-11-18T09:33:23;3.40;;;3.10;;
6412;SDS011;3239;48.714;9.472;2023-11-18T09:35:56;5.07;;;3.53;;
6412;SDS011;3239;48.714;9.472;2023-11-18T09:38:34;4.13;;;2.80;;
6412;SDS011;3239;48.714;9.472;2023-11-18T09:41:02;6.17;;;2.87;;
6412;SDS011;3239;48.714;9.472;2023-11-18T09:43:36;4.13;;;3.00;;
6412;SDS011;3239;48.714;9.472;2023-11-18T09:46:27;3.03;;;2.73;;
6412;SDS011;3239;48.714;9.472;2023-11-18T09:49:10;3.60;;;2.63;;
6412;SDS011;3239;48.714;9.472;2023-11-18T09:51:50;2.97;;;2.30;;
6412;SDS011;3239;48.714;9.472;2023-11-18T09:54:36;1.77;;;1.53;;
6412;SDS011;3239;48.714;9.472;2023-11-18T09:57:31;4.10;;;1.90;;
6412;SDS011;3239;48.714;9.472;2023-11-18T10:00:05;2.50;;;2.30;;
6412;SDS011;3239;48.714;9.472;2023-11-18T10:02:51;3.70;;;2.00;;
6412;SDS011;3239;48.714;9.472;2023-11-18T10:05:18;2.10;;;1.87;;
6412;SDS011;3239;48.714;9.472;2023-11-18T10:07:51;2.80;;;2.17;;
6412;SDS011;3239;48.714;9.472;2023-11-18T10:10:18;2.80;;;2.00;;
6412;SDS011;3239;48.714;9.472;2023-11-18T10:12:49;2.17;;;1.97;;
6412;SDS011;3239;48.714;9.472;2023-11-18T10:15:23;2.87;;;2.57;;
6412;SDS011;3239;48.714;9.472;2023-11-18T10:17:50;2.30;;;2.10;;
6412;SDS011;3239;48.714;9.472;2023-11-18T10:20:22;3.00;;;2.43;;
6412;SDS011;3239;48.714;9.472;2023-11-18T10:23:09;4.37;;;2.30;;
6412;SDS011;3239;48.714;9.472;2023-11-18T10:25:36;2.40;;;2.20;;
6412;SDS011;3239;48.714;9.472;2023-11-18T10:28:21;3.20;;;2.90;;
6412;SDS011;3239;48.714;9.472;2023-11-18T10:31:01;2.83;;;2.53;;
6412;SDS011;3239;48.714;9.472;2023-11-18T10:33:32;3.73;;;2.93;;
6412;SDS011;3239;48.714;9.472;2023-11-18T10:36:03;3.00;;;2.60;;
6412;SDS011;3239;48.714;9.472;2023-11-18T10:38:32;2.90;;;2.60;;
6412;SDS011;3239;48.714;9.472;2023-11-18T10:41:08;7.47;;;2.90;;
6412;SDS011;3239;48.714;9.472;2023-11-18T10:43:34;2.97;;;2.67;;
6412;SDS011;3239;48.714;9.472;2023-11-18T10:46:08;4.93;;;2.03;;
6412;SDS011;3239;48.714;9.472;2023-11-18T10:48:44;2.90;;;2.60;;
6412;SDS011;3239;48.714;9.472;2023-11-18T10:51:13;2.40;;;2.13;;
6412;SDS011;3239;48.714;9.472;2023-11-18T10:53:44;3.20;;;2.30;;
6412;SDS011;3239;48.714;9.472;2023-11-18T10:56:28;2.50;;;2.30;;
6412;SDS011;3239;48.714;9.472;2023-11-18T10:58:55;3.77;;;2.50;;
6412;SDS011;3239;48.714;9.472;2023-11-18T11:01:32;2.50;;;2.30;;
6412;SDS011;3239;48.714;9.472;2023-11-18T11:04:07;3.33;;;2.47;;
6412;SDS011;3239;48.714;9.472;2023-11-18T11:06:35;3.07;;;2.43;;
6412;SDS011;3239;48.714;9.472;2023-11-18T11:09:10;5.93;;;2.23;;
6412;SDS011;3239;48.714;9.472;2023-11-18T11:11:48;3.30;;;2.83;;
6412;SDS011;3239;48.714;9.472;2023-11-18T11:14:33;6.43;;;3.13;;
6412;SDS011;3239;48.714;9.472;2023-11-18T11:17:06;5.97;;;3.90;;
6412;SDS011;3239;48.714;9.472;2023-11-18T11:19:41;4.00;;;3.20;;
6412;SDS011;3239;48.714;9.472;2023-11-18T11:22:15;4.27;;;3.10;;
6412;SDS011;3239;48.714;9.472;2023-11-18T11:24:53;3.30;;;2.93;;
6412;SDS011;3239;48.714;9.472;2023-11-18T11:27:46;4.70;;;3.40;;
6412;SDS011;3239;48.714;9.472;2023-11-18T11:30:22;2.20;;;2.00;;
6412;SDS011;3239;48.714;9.472;2023-11-18T11:35:30;2.73;;;2.43;;
6412;SDS011;3239;48.714;9.472;2023-11-18T11:37:58;3.23;;;2.30;;
6412;SDS011;3239;48.714;9.472;2023-11-18T11:40:32;2.83;;;2.37;;
6412;SDS011;3239;48.714;9.472;2023-11-18T11:43:01;3.30;;;2.33;;
6412;SDS011;3239;48.714;9.472;2023-11-18T11:45:30;9.40;;;2.70;;
6412;SDS011;3239;48.714;9.472;2023-11-18T11:47:57;2.40;;;2.20;;
6412;SDS011;3239;48.714;9.472;2023-11-18T11:50:48;3.10;;;2.50;;
6412;SDS011;3239;48.714;9.472;2023-11-18T11:54:20;2.83;;;2.53;;
6412;SDS011;3239;48.714;9.472;2023-11-18T11:57:05;4.97;;;2.83;;
6412;SDS011;3239;48.714;9.472;2023-11-18T12:02:17;3.20;;;2.50;;
6412;SDS011;3239;48.714;9.472;2023-11-18T12:04:53;2.70;;;2.27;;
6412;SDS011;3239;48.714;9.472;2023-11-18T12:07:25;3.30;;;2.73;;
6412;SDS011;3239;48.714;9.472;2023-11-18T12:09:58;2.63;;;2.33;;
6412;SDS011;3239;48.714;9.472;2023-11-18T12:12:26;3.97;;;2.90;;
6412;SDS011;3239;48.714;9.472;2023-11-18T12:14:57;12.03;;;5.73;;
6412;SDS011;3239;48.714;9.472;2023-11-18T12:20:46;3.20;;;2.90;;
6412;SDS011;3239;48.714;9.472;2023-11-18T12:23:22;8.50;;;5.17;;
6412;SDS011;3239;48.714;9.472;2023-11-18T12:25:50;27.20;;;11.30;;
6412;SDS011;3239;48.714;9.472;2023-11-18T12:28:20;23.43;;;10.73;;
6412;SDS011;3239;48.714;9.472;2023-11-18T12:30:56;4.30;;;3.07;;
6412;SDS011;3239;48.714;9.472;2023-11-18T12:33:26;4.30;;;3.67;;
6412;SDS011;3239;48.714;9.472;2023-11-18T12:42:05;4.27;;;3.17;;
6412;SDS011;3239;48.714;9.472;2023-11-18T12:45:00;3.60;;;3.30;;
6412;SDS011;3239;48.714;9.472;2023-11-18T12:47:44;4.07;;;2.93;;
6412;SDS011;3239;48.714;9.472;2023-11-18T12:50:13;4.40;;;3.90;;
6412;SDS011;3239;48.714;9.472;2023-11-18T12:52:51;6.20;;;3.53;;
6412;SDS011;3239;48.714;9.472;2023-11-18T12:55:17;5.40;;;3.50;;
6412;SDS011;3239;48.714;9.472;2023-11-18T12:57:47;4.33;;;3.93;;
6412;SDS011;3239;48.714;9.472;2023-11-18T13:00:14;7.93;;;5.30;;
6412;SDS011;3239;48.714;9.472;2023-11-18T13:02:44;5.40;;;4.20;;
6412;SDS011;3239;48.714;9.472;2023-11-18T13:05:10;4.13;;;3.47;;
6412;SDS011;3239;48.714;9.472;2023-11-18T13:07:36;4.03;;;3.00;;
6412;SDS011;3239;48.714;9.472;2023-11-18T13:10:02;3.90;;;2.80;;
6412;SDS011;3239;48.714;9.472;2023-11-18T13:12:29;4.27;;;2.80;;
6412;SDS011;3239;48.714;9.472;2023-11-18T13:14:55;3.87;;;2.70;;
6412;SDS011;3239;48.714;9.472;2023-11-18T13:17:21;3.40;;;2.50;;
6412;SDS011;3239;48.714;9.472;2023-11-18T13:19:47;2.43;;;2.13;;
6412;SDS011;3239;48.714;9.472;2023-11-18T13:22:16;3.40;;;2.60;;
6412;SDS011;3239;48.714;9.472;2023-11-18T13:24:44;2.87;;;2.50;;
6412;SDS011;3239;48.714;9.472;2023-11-18T13:27:13;2.40;;;2.17;;
6412;SDS011;3239;48.714;9.472;2023-11-18T13:29:43;4.10;;;2.30;;
6412;SDS011;3239;48.714;9.472;2023-11-18T13:32:10;3.03;;;2.70;;
6412;SDS011;3239;48.714;9.472;2023-11-18T13:34:37;8.30;;;2.57;;
6412;SDS011;3239;48.714;9.472;2023-11-18T13:37:07;2.47;;;2.27;;
6412;SDS011;3239;48.714;9.472;2023-11-18T13:39:37;4.10;;;2.50;;
6412;SDS011;3239;48.714;9.472;2023-11-18T13:42:25;5.80;;;2.63;;
6412;SDS011;3239;48.714;9.472;2023-11-18T13:45:00;3.30;;;1.70;;
6412;SDS011;3239;48.714;9.472;2023-11-18T13:47:33;1.40;;;1.07;;
6412;SDS011;3239;48.714;9.472;2023-11-18T13:49:59;3.00;;;0.90;;
6412;SDS011;3239;48.714;9.472;2023-11-18T13:52:24;2.40;;;0.80;;
6412;SDS011;3239;48.714;9.472;2023-11-18T13:54:50;1.43;;;0.70;;
6412;SDS011;3239;48.714;9.472;2023-11-18T13:57:22;1.87;;;1.10;;
6412;SDS011;3239;48.714;9.472;2023-11-18T13:59:49;2.20;;;0.80;;
6412;SDS011;3239;48.714;9.472;2023-11-18T14:02:15;1.83;;;0.80;;
6412;SDS011;3239;48.714;9.472;2023-11-18T14:04:41;1.93;;;0.97;;
6412;SDS011;3239;48.714;9.472;2023-11-18T14:07:14;1.80;;;1.13;;
6412;SDS011;3239;48.714;9.472;2023-11-18T14:09:42;1.90;;;0.97;;
6412;SDS011;3239;48.714;9.472;2023-11-18T14:12:10;1.63;;;1.23;;
6412;SDS011;3239;48.714;9.472;2023-11-18T14:14:38;2.63;;;1.30;;
6412;SDS011;3239;48.714;9.472;2023-11-18T14:17:05;2.30;;;1.30;;
6412;SDS011;3239;48.714;9.472;2023-11-18T14:19:35;3.37;;;1.57;;
6412;SDS011;3239;48.714;9.472;2023-11-18T14:22:02;1.70;;;1.03;;
6412;SDS011;3239;48.714;9.472;2023-11-18T14:24:31;2.43;;;1.20;;
6412;SDS011;3239;48.714;9.472;2023-11-18T14:27:00;2.60;;;1.60;;
6412;SDS011;3239;48.714;9.472;2023-11-18T14:29:26;3.00;;;1.90;;
6412;SDS011;3239;48.714;9.472;2023-11-18T14:31:55;2.10;;;1.47;;
6412;SDS011;3239;48.714;9.472;2023-11-18T14:34:21;2.17;;;1.17;;
6412;SDS011;3239;48.714;9.472;2023-11-18T14:36:46;2.47;;;1.60;;
6412;SDS011;3239;48.714;9.472;2023-11-18T14:39:12;3.03;;;1.37;;
6412;SDS011;3239;48.714;9.472;2023-11-18T14:41:43;2.90;;;1.83;;
6412;SDS011;3239;48.714;9.472;2023-11-18T14:44:10;3.10;;;1.90;;
6412;SDS011;3239;48.714;9.472;2023-11-18T14:46:36;2.80;;;1.90;;
6412;SDS011;3239;48.714;9.472;2023-11-18T14:49:05;3.33;;;1.70;;
6412;SDS011;3239;48.714;9.472;2023-11-18T14:51:32;2.73;;;2.03;;
6412;SDS011;3239;48.714;9.472;2023-11-18T14:53:58;3.00;;;1.70;;
6412;SDS011;3239;48.714;9.472;2023-11-18T14:56:24;3.07;;;1.83;;
6412;SDS011;3239;48.714;9.472;2023-11-18T14:58:49;1.70;;;1.40;;
6412;SDS011;3239;48.714;9.472;2023-11-18T15:01:15;3.40;;;1.53;;
6412;SDS011;3239;48.714;9.472;2023-11-18T15:03:43;2.87;;;1.40;;
6412;SDS011;3239;48.714;9.472;2023-11-18T15:06:11;2.97;;;1.60;;
6412;SDS011;3239;48.714;9.472;2023-11-18T15:08:37;2.50;;;1.70;;
6412;SDS011;3239;48.714;9.472;2023-11-18T15:11:04;4.23;;;1.73;;
6412;SDS011;3239;48.714;9.472;2023-11-18T15:13:34;4.27;;;1.57;;
6412;SDS011;3239;48.714;9.472;2023-11-18T15:16:00;2.33;;;1.10;;
6412;SDS011;3239;48.714;9.472;2023-11-18T15:18:26;2.97;;;1.57;;
6412;SDS011;3239;48.714;9.472;2023-11-18T15:20:52;4.50;;;1.33;;
6412;SDS011;3239;48.714;9.472;2023-11-18T15:23:18;7.97;;;1.40;;
6412;SDS011;3239;48.714;9.472;2023-11-18T15:25:47;5.00;;;2.03;;
6412;SDS011;3239;48.714;9.472;2023-11-18T15:28:15;5.50;;;2.60;;
6412;SDS011;3239;48.714;9.472;2023-11-18T15:30:42;5.63;;;1.73;;
6412;SDS011;3239;48.714;9.472;2023-11-18T15:33:11;4.03;;;1.73;;
6412;SDS011;3239;48.714;9.472;2023-11-18T15:35:38;2.97;;;1.70;;
6412;SDS011;3239;48.714;9.472;2023-11-18T15:38:08;4.77;;;2.17;;
6412;SDS011;3239;48.714;9.472;2023-11-18T15:40:34;2.30;;;1.77;;
6412;SDS011;3239;48.714;9.472;2023-11-18T15:43:01;4.77;;;2.47;;
6412;SDS011;3239;48.714;9.472;2023-11-18T15:45:36;3.90;;;1.93;;
6412;SDS011;3239;48.714;9.472;2023-11-18T15:48:02;3.20;;;1.60;;